VOE2393 LFPO-LFBL
Flight info
| Callsign | VOE2393 |
|---|---|
| Flight time | N/A |
| Altitude | 29000 |
| Route | ERIXU DCT ETAMO DCT GUERE |
| Aircraft | A319/M-SDE3FGHIRWY/LB1 |
Departure
| Time | N/A |
|---|---|
| Airport | Paris-Orly Airport (LFPO) |
Arrival
| Time | 2026-04-26 20:10 |
|---|---|
| Airport | Limoges Airport (LFBL) |
| Time | Latitude | Longitude | Altitude | Speed | Heading |
|---|---|---|---|---|---|
| 2026-04-26 20:06 | 45.74921 | 1.07555 | 3637 ft | 151 kts | 32° |
| 2026-04-26 20:06 | 45.75798 | 1.08359 | 3480 ft | 148 kts | 37° |
| 2026-04-26 20:06 | 45.76610 | 1.09222 | 3311 ft | 143 kts | 37° |
| 2026-04-26 20:07 | 45.77425 | 1.10011 | 3122 ft | 141 kts | 33° |
| 2026-04-26 20:07 | 45.78253 | 1.10769 | 2920 ft | 141 kts | 34° |
| 2026-04-26 20:07 | 45.79068 | 1.11524 | 2722 ft | 136 kts | 34° |
| 2026-04-26 20:07 | 45.79861 | 1.12234 | 2583 ft | 133 kts | 33° |
| 2026-04-26 20:08 | 45.80624 | 1.12941 | 2469 ft | 124 kts | 35° |
| 2026-04-26 20:08 | 45.81338 | 1.13604 | 2334 ft | 122 kts | 35° |
| 2026-04-26 20:08 | 45.82046 | 1.14278 | 2198 ft | 121 kts | 36° |
| 2026-04-26 20:08 | 45.82760 | 1.14928 | 2009 ft | 121 kts | 33° |
| 2026-04-26 20:09 | 45.83462 | 1.15594 | 1789 ft | 121 kts | 32° |
| 2026-04-26 20:09 | 45.84175 | 1.16250 | 1607 ft | 122 kts | 32° |
| 2026-04-26 20:09 | 45.84894 | 1.16932 | 1433 ft | 124 kts | 34° |
| 2026-04-26 20:09 | 45.85614 | 1.17597 | 1314 ft | 117 kts | 34° |
| 2026-04-26 20:10 | 45.86192 | 1.18142 | 1312 ft | 85 kts | 33° |
| 2026-04-26 20:10 | 45.86624 | 1.18545 | 1313 ft | 63 kts | 33° |
| 2026-04-26 20:10 | 45.86945 | 1.18846 | 1309 ft | 42 kts | 33° |
| 2026-04-26 20:10 | 45.87061 | 1.18980 | 1310 ft | 16 kts | 56° |
| 2026-04-26 20:11 | 45.87111 | 1.19027 | 1309 ft | 6 kts | 324° |
| 2026-04-26 20:11 | 45.87099 | 1.18986 | 1310 ft | 7 kts | 212° |
| 2026-04-26 20:11 | 45.87037 | 1.18930 | 1310 ft | 15 kts | 213° |
| 2026-04-26 20:12 | 45.86784 | 1.18691 | 1311 ft | 29 kts | 213° |
| 2026-04-26 20:12 | 45.86605 | 1.18524 | 1313 ft | 31 kts | 212° |
| 2026-04-26 20:12 | 45.86422 | 1.18353 | 1312 ft | 32 kts | 213° |
| 2026-04-26 20:12 | 45.86236 | 1.18177 | 1311 ft | 32 kts | 213° |
| 2026-04-26 20:13 | 45.86095 | 1.18013 | 1312 ft | 11 kts | 263° |
| 2026-04-26 20:13 | 45.86135 | 1.17905 | 1314 ft | 13 kts | 304° |
| 2026-04-26 20:13 | 45.86130 | 1.17808 | 1315 ft | 12 kts | 217° |
| 2026-04-26 20:13 | 45.86059 | 1.17739 | 1315 ft | 9 kts | 230° |
| 2026-04-26 20:14 | 45.86071 | 1.17674 | 1315 ft | 9 kts | 303° |
| 2026-04-26 20:14 | 45.86076 | 1.17663 | 1315 ft | 0 kts | 306° |
| 2026-04-26 20:14 | 45.86077 | 1.17662 | 1315 ft | 1 kts | 306° |
| 2026-04-26 20:15 | 45.86088 | 1.17650 | 1315 ft | 0 kts | 341° |
| 2026-04-26 20:15 | 45.86090 | 1.17653 | 1315 ft | 0 kts | 10° |
| 2026-04-26 20:15 | 45.86093 | 1.17665 | 1315 ft | 3 kts | 69° |
| 2026-04-26 20:15 | 45.86099 | 1.17693 | 1315 ft | 0 kts | 72° |